Time;durP1;ratioP1;P1;durP2;ratioP2;P2;SDS_P1;SDS_P2;PMS_P1;PMS_P2;Temp;Humidity;BMP_temperature;BMP_pressure;BME280_temperature;BME280_humidity;BME280_pressure;Samples;Min_cycle;Max_cycle;Signal;HPM_P1;HPM_P2
2022/01/10 00:02:19;;;;;;;14.80;7.40;;;;;;;-2.36;68.97;95825.01;107534;1271;44290;-73
2022/01/10 00:04:50;;;;;;;12.50;6.70;;;;;;;-2.38;69.01;95829.90;107599;1271;42263;-73
2022/01/10 00:07:21;;;;;;;14.30;6.80;;;;;;;-2.41;69.08;95826.88;107592;1269;34435;-73
2022/01/10 00:09:52;;;;;;;12.90;6.10;;;;;;;-2.42;69.16;95827.99;107541;1270;35397;-73
2022/01/10 00:12:23;;;;;;;12.60;7.00;;;;;;;-2.44;69.09;95829.02;107618;1268;39654;-73
2022/01/10 00:14:54;;;;;;;10.90;6.30;;;;;;;-2.45;69.16;95829.98;107597;1268;36468;-73
2022/01/10 00:17:25;;;;;;;11.30;5.00;;;;;;;-2.43;69.31;95833.23;107549;1268;42765;-73
2022/01/10 00:19:56;;;;;;;14.30;7.40;;;;;;;-2.39;69.31;95832.41;107610;1268;36171;-73
2022/01/10 00:22:27;;;;;;;13.30;6.50;;;;;;;-2.38;69.25;95836.17;107625;1268;44627;-73
2022/01/10 00:24:58;;;;;;;15.40;6.90;;;;;;;-2.41;69.22;95837.64;107524;1268;49361;-73
2022/01/10 00:27:29;;;;;;;12.80;7.00;;;;;;;-2.46;69.16;95836.55;107508;1270;44035;-73
2022/01/10 00:30:00;;;;;;;15.00;7.40;;;;;;;-2.47;69.42;95839.12;107493;1270;37405;-73
2022/01/10 00:32:31;;;;;;;13.80;7.10;;;;;;;-2.49;69.44;95842.49;107572;1268;40855;-73
2022/01/10 00:35:02;;;;;;;15.00;7.20;;;;;;;-2.47;69.44;95845.83;107630;1271;30714;-73
2022/01/10 00:37:34;;;;;;;11.00;6.00;;;;;;;-2.47;69.60;95848.05;107559;1270;41270;-73
2022/01/10 00:40:07;;;;;;;16.00;7.40;;;;;;;-2.47;69.64;95850.17;107668;1270;31108;-73
2022/01/10 00:42:37;;;;;;;16.60;7.90;;;;;;;-2.49;69.55;95850.27;107516;1270;45342;-73
2022/01/10 00:45:17;;;;;;;11.80;6.80;;;;;;;-2.52;69.68;95856.63;107661;1270;29797;-73
2022/01/10 00:47:48;;;;;;;10.00;4.50;;;;;;;-2.53;69.99;95855.04;107630;1268;30984;-73
2022/01/10 00:50:19;;;;;;;10.00;5.80;;;;;;;-2.50;69.93;95853.80;107533;1269;43090;-73
2022/01/10 00:52:50;;;;;;;12.40;6.30;;;;;;;-2.52;69.92;95857.14;107604;1268;32277;-73
2022/01/10 00:55:21;;;;;;;11.50;5.70;;;;;;;-2.54;70.17;95864.41;107582;1270;47419;-73
2022/01/10 00:57:52;;;;;;;9.50;5.40;;;;;;;-2.54;70.30;95866.48;107624;1268;49941;-73
2022/01/10 01:00:23;;;;;;;10.40;5.30;;;;;;;-2.55;70.25;95864.14;107522;1268;38616;-73
2022/01/10 01:02:58;;;;;;;11.60;6.00;;;;;;;-2.61;70.26;95866.48;107523;1271;43828;-73
2022/01/10 01:05:33;;;;;;;11.40;5.90;;;;;;;-2.71;70.44;95869.11;107566;1270;41637;-73
2022/01/10 01:08:07;;;;;;;12.50;5.20;;;;;;;-2.76;70.74;95867.01;107582;1271;46775;-73
2022/01/10 01:13:32;;;;;;;7.30;4.40;;;;;;;-2.82;71.20;95869.41;107428;1270;49324;-73
2022/01/10 01:16:17;;;;;;;9.50;4.70;;;;;;;-2.83;71.34;95871.64;107510;1270;43660;-73
2022/01/10 01:24:26;;;;;;;8.90;4.80;;;;;;;-2.98;71.77;95876.59;107585;1268;42178;-73
2022/01/10 01:26:57;;;;;;;8.30;3.80;;;;;;;-3.03;71.74;95875.23;107558;1271;34468;-73
2022/01/10 01:29:30;;;;;;;11.50;5.20;;;;;;;-3.02;71.89;95879.10;107606;1268;40646;-73
2022/01/10 01:32:01;;;;;;;9.90;5.00;;;;;;;-2.99;72.10;95883.29;107510;1270;43150;-73
2022/01/10 01:34:32;;;;;;;9.30;5.20;;;;;;;-3.00;72.08;95878.40;107511;1270;31069;-73
2022/01/10 01:37:03;;;;;;;9.10;4.70;;;;;;;-2.97;72.23;95887.59;107579;1270;34633;-73
2022/01/10 01:39:35;;;;;;;8.90;4.60;;;;;;;-2.95;72.11;95883.77;107596;1271;35639;-73
2022/01/10 01:42:30;;;;;;;9.90;5.00;;;;;;;-2.95;72.22;95890.07;107641;1271;38516;-73
2022/01/10 01:44:59;;;;;;;10.80;4.90;;;;;;;-3.02;72.00;95891.90;107539;1268;32232;-73
2022/01/10 01:47:29;;;;;;;8.20;4.10;;;;;;;-3.06;72.16;95895.48;107487;1270;33118;-73
2022/01/10 01:50:00;;;;;;;9.80;4.90;;;;;;;-3.12;71.73;95893.92;107579;1271;36886;-73
2022/01/10 01:52:31;;;;;;;7.90;4.20;;;;;;;-3.22;71.83;95900.33;107448;1270;43180;-73
2022/01/10 01:55:02;;;;;;;7.40;4.10;;;;;;;-3.28;72.01;95903.42;107513;1271;30520;-73
2022/01/10 01:57:33;;;;;;;6.90;4.20;;;;;;;-3.33;72.07;95905.21;107561;1270;43708;-73
2022/01/10 02:00:08;;;;;;;8.50;4.30;;;;;;;-3.38;72.02;95909.75;107513;1270;38600;-73
2022/01/10 02:02:39;;;;;;;7.20;4.60;;;;;;;-3.42;72.08;95912.23;107627;1270;39366;-73
2022/01/10 02:05:11;;;;;;;6.90;3.90;;;;;;;-3.42;72.51;95911.52;107537;1268;42746;-73
2022/01/10 02:07:42;;;;;;;9.50;4.50;;;;;;;-3.42;72.43;95912.44;107610;1271;39882;-73
2022/01/10 02:10:14;;;;;;;7.10;3.90;;;;;;;-3.46;72.29;95908.95;107529;1270;41693;-73
2022/01/10 02:12:45;;;;;;;6.80;3.50;;;;;;;-3.48;72.51;95908.25;107565;1268;44382;-73
2022/01/10 02:15:32;;;;;;;7.50;3.80;;;;;;;-3.48;72.68;95914.80;107470;1271;37943;-73
2022/01/10 02:18:04;;;;;;;6.50;3.80;;;;;;;-3.47;72.46;95919.73;107723;1271;49823;-73
2022/01/10 02:20:36;;;;;;;8.40;3.50;;;;;;;-3.48;72.69;95922.13;107721;1268;33069;-73
2022/01/10 02:23:07;;;;;;;7.20;3.90;;;;;;;-3.51;72.96;95926.33;107628;1268;43242;-72
2022/01/10 02:25:38;;;;;;;6.90;3.90;;;;;;;-3.56;72.82;95925.53;107618;1271;35230;-73
2022/01/10 02:28:09;;;;;;;8.70;3.60;;;;;;;-3.61;72.74;95929.27;107600;1268;49620;-73
2022/01/10 02:30:41;;;;;;;8.40;4.40;;;;;;;-3.71;72.66;95932.58;107594;1269;29155;-74
2022/01/10 02:33:12;;;;;;;8.20;4.10;;;;;;;-3.78;72.78;95941.58;107546;1270;45828;-73
2022/01/10 02:35:51;;;;;;;6.70;4.00;;;;;;;-3.79;73.00;95937.80;107562;1271;35016;-73
2022/01/10 02:38:22;;;;;;;6.20;3.60;;;;;;;-3.79;73.17;95941.81;107617;1271;37415;-73
2022/01/10 02:40:53;;;;;;;9.00;4.20;;;;;;;-3.76;73.17;95944.33;107588;1271;33094;-73
2022/01/10 02:43:24;;;;;;;8.20;3.50;;;;;;;-3.73;73.31;95941.31;107594;1271;42020;-73
2022/01/10 02:45:57;;;;;;;7.50;3.50;;;;;;;-3.78;73.43;95943.67;107582;1268;33613;-73
2022/01/10 02:48:28;;;;;;;7.30;3.70;;;;;;;-3.83;73.83;95948.70;107626;1268;38703;-73
2022/01/10 02:50:58;;;;;;;6.50;3.00;;;;;;;-3.89;74.20;95949.41;107449;1270;38835;-73
2022/01/10 02:53:29;;;;;;;7.30;4.00;;;;;;;-3.90;74.51;95951.89;107502;1271;44366;-73
2022/01/10 02:56:00;;;;;;;5.80;3.30;;;;;;;-3.91;74.88;95954.14;107616;1271;41284;-72
2022/01/10 02:58:31;;;;;;;5.30;3.10;;;;;;;-3.97;74.97;95957.86;107624;1268;30757;-73
2022/01/10 03:01:02;;;;;;;8.50;3.60;;;;;;;-4.03;75.02;95958.65;107578;1268;32301;-73
2022/01/10 03:03:34;;;;;;;5.10;3.10;;;;;;;-4.09;74.96;95961.60;107524;1268;44593;-72
2022/01/10 03:06:05;;;;;;;8.70;4.10;;;;;;;-4.11;75.27;95963.98;107543;1271;46912;-73
2022/01/10 03:08:36;;;;;;;6.60;3.80;;;;;;;-4.10;75.54;95962.79;107663;1268;42068;-72
2022/01/10 03:11:07;;;;;;;8.50;4.20;;;;;;;-4.11;75.72;95963.98;107677;1269;36495;-72
2022/01/10 03:13:38;;;;;;;8.70;3.90;;;;;;;-4.19;75.73;95966.77;107669;1268;35969;-73
2022/01/10 03:16:09;;;;;;;7.30;3.80;;;;;;;-4.23;76.11;95971.38;107622;1268;44748;-73
2022/01/10 03:18:39;;;;;;;6.40;3.40;;;;;;;-4.22;76.68;95967.32;107621;1271;45478;-73
2022/01/10 03:21:10;;;;;;;8.70;4.30;;;;;;;-4.18;76.88;95974.20;107609;1268;28878;-73
2022/01/10 03:23:42;;;;;;;8.70;4.60;;;;;;;-4.14;76.79;95977.30;107538;1268;45012;-73
2022/01/10 03:26:12;;;;;;;10.40;5.30;;;;;;;-4.12;76.90;95979.52;107552;1268;37048;-73
2022/01/10 03:28:43;;;;;;;9.50;5.10;;;;;;;-4.09;76.94;95980.39;107534;1271;42079;-73
2022/01/10 03:31:14;;;;;;;7.40;4.20;;;;;;;-4.05;76.93;95984.06;107538;1270;30349;-73
2022/01/10 03:33:45;;;;;;;8.40;4.40;;;;;;;-4.10;76.82;95984.57;107585;1267;35600;-73
2022/01/10 03:36:16;;;;;;;8.90;4.60;;;;;;;-4.17;76.83;95992.25;107553;1271;43383;-73
2022/01/10 03:38:47;;;;;;;7.30;4.00;;;;;;;-4.21;76.69;95994.55;107601;1268;33542;-73
2022/01/10 03:41:18;;;;;;;7.60;3.90;;;;;;;-4.22;76.51;95994.08;107591;1268;43425;-73
2022/01/10 03:43:48;;;;;;;8.00;3.50;;;;;;;-4.28;76.17;96000.27;107592;1271;48319;-73
2022/01/10 03:46:19;;;;;;;5.00;2.90;;;;;;;-4.31;76.44;96003.48;107631;1269;39022;-73
2022/01/10 03:48:50;;;;;;;7.90;3.30;;;;;;;-4.33;76.32;96007.17;107624;1268;29143;-73
2022/01/10 03:51:21;;;;;;;7.10;3.10;;;;;;;-4.32;76.36;96012.75;107577;1268;32581;-73
2022/01/10 03:53:52;;;;;;;10.50;4.90;;;;;;;-4.29;76.43;96015.34;107614;1268;34032;-73
2022/01/10 03:56:24;;;;;;;9.10;3.60;;;;;;;-4.28;76.42;96019.10;107530;1271;53419;-73
2022/01/10 03:58:55;;;;;;;7.90;3.70;;;;;;;-4.29;76.27;96023.89;107537;1271;31544;-73
2022/01/10 04:01:26;;;;;;;9.50;3.60;;;;;;;-4.38;75.79;96029.98;107575;1271;46037;-73
2022/01/10 04:03:57;;;;;;;6.00;3.50;;;;;;;-4.55;75.88;96031.27;107645;1268;31926;-72
2022/01/10 04:06:28;;;;;;;8.50;3.60;;;;;;;-4.58;75.68;96037.16;107603;1272;41056;-72
2022/01/10 04:08:59;;;;;;;6.60;3.60;;;;;;;-4.60;75.90;96038.05;107520;1271;50040;-73
2022/01/10 04:11:30;;;;;;;7.70;4.20;;;;;;;-4.62;75.83;96040.99;107554;1271;43171;-72
2022/01/10 04:14:00;;;;;;;11.80;6.00;;;;;;;-4.72;76.03;96045.73;107579;1268;57534;-73
2022/01/10 04:16:31;;;;;;;12.60;7.00;;;;;;;-4.84;75.92;96051.36;107603;1271;35616;-72
2022/01/10 04:19:02;;;;;;;10.50;6.50;;;;;;;-4.88;75.78;96060.02;107624;1271;40566;-72
2022/01/10 04:21:33;;;;;;;11.60;6.20;;;;;;;-4.95;75.92;96062.30;107619;1271;34226;-72
2022/01/10 04:24:04;;;;;;;10.10;5.60;;;;;;;-5.08;75.96;96063.02;107584;1269;43755;-72
2022/01/10 04:26:35;;;;;;;12.30;6.00;;;;;;;-5.18;76.31;96062.00;107649;1268;39556;-73
2022/01/10 04:29:06;;;;;;;12.20;6.70;;;;;;;-5.24;76.79;96067.72;107573;1270;39965;-73
2022/01/10 04:31:37;;;;;;;11.20;5.70;;;;;;;-5.23;77.44;96071.58;107674;1271;32398;-72
2022/01/10 04:34:08;;;;;;;9.00;4.60;;;;;;;-5.27;77.58;96071.85;107648;1268;38681;-72
2022/01/10 04:36:38;;;;;;;7.70;4.20;;;;;;;-5.28;77.89;96073.00;107483;1270;32541;-72
2022/01/10 04:39:09;;;;;;;12.90;5.20;;;;;;;-5.22;78.40;96078.23;107621;1271;40802;-72
2022/01/10 04:41:40;;;;;;;9.50;4.90;;;;;;;-5.19;78.48;96075.15;107608;1271;41504;-73
2022/01/10 04:44:11;;;;;;;8.30;4.90;;;;;;;-5.19;78.51;96078.02;107455;1270;46430;-73
2022/01/10 04:46:42;;;;;;;10.10;4.90;;;;;;;-5.18;78.34;96083.19;107578;1271;44029;-73
2022/01/10 04:49:21;;;;;;;9.90;5.00;;;;;;;-5.24;78.14;96083.58;107600;1271;44295;-73
2022/01/10 04:51:52;;;;;;;10.80;5.30;;;;;;;-5.30;78.47;96084.60;107633;1269;34111;-73
2022/01/10 04:54:24;;;;;;;10.30;5.20;;;;;;;-5.28;78.52;96090.08;107492;1271;45144;-73
2022/01/10 04:56:55;;;;;;;8.70;5.10;;;;;;;-5.27;78.46;96090.92;107602;1269;33131;-72
2022/01/10 04:59:25;;;;;;;8.50;4.70;;;;;;;-5.30;78.48;96091.71;107599;1269;42752;-73
2022/01/10 05:01:56;;;;;;;8.60;4.70;;;;;;;-5.28;78.38;96095.22;107559;1268;39770;-73
2022/01/10 05:04:27;;;;;;;10.00;4.80;;;;;;;-5.22;78.51;96095.13;107513;1270;42678;-73
2022/01/10 05:06:58;;;;;;;10.00;5.10;;;;;;;-5.16;78.71;96101.84;107579;1268;46257;-72
2022/01/10 05:09:29;;;;;;;7.30;3.80;;;;;;;-5.24;78.28;96102.42;107564;1271;40221;-72
2022/01/10 05:12:00;;;;;;;8.40;4.00;;;;;;;-5.29;78.37;96109.69;107523;1269;44004;-73
2022/01/10 05:14:32;;;;;;;11.20;5.30;;;;;;;-5.39;78.39;96111.89;107601;1268;43116;-73
2022/01/10 05:17:03;;;;;;;9.50;4.80;;;;;;;-5.47;78.25;96115.27;107724;1269;47507;-72
2022/01/10 05:19:34;;;;;;;9.80;4.40;;;;;;;-5.51;78.39;96119.40;107466;1271;44401;-72
2022/01/10 05:22:06;;;;;;;10.20;4.40;;;;;;;-5.48;78.27;96128.49;107617;1271;41755;-73
2022/01/10 05:24:36;;;;;;;10.50;4.60;;;;;;;-5.42;78.46;96132.62;107645;1269;45493;-73
2022/01/10 05:27:08;;;;;;;7.90;4.50;;;;;;;-5.44;78.19;96137.09;107622;1268;41723;-72
2022/01/10 05:29:39;;;;;;;8.80;4.70;;;;;;;-5.46;78.12;96141.50;107674;1268;37710;-73
2022/01/10 05:32:10;;;;;;;11.30;5.00;;;;;;;-5.43;78.17;96145.45;107679;1268;35892;-72
2022/01/10 05:34:41;;;;;;;9.90;4.60;;;;;;;-5.48;78.05;96150.41;107598;1268;44258;-73
2022/01/10 05:37:11;;;;;;;9.30;4.70;;;;;;;-5.57;78.00;96154.29;107463;1271;42760;-73
2022/01/10 05:39:42;;;;;;;9.70;4.60;;;;;;;-5.73;77.78;96157.39;107484;1270;48220;-73
2022/01/10 05:42:14;;;;;;;7.90;4.70;;;;;;;-5.84;78.06;96163.06;107582;1269;52099;-73
2022/01/10 05:44:45;;;;;;;8.40;4.30;;;;;;;-5.85;78.47;96169.60;107578;1268;41318;-73
2022/01/10 05:47:16;;;;;;;8.70;4.70;;;;;;;-5.84;78.85;96177.67;107616;1268;34483;-73
2022/01/10 05:49:49;;;;;;;9.40;5.10;;;;;;;-5.83;78.95;96182.41;107586;1271;37578;-73
2022/01/10 05:52:20;;;;;;;9.30;5.60;;;;;;;-5.82;79.03;96188.26;107518;1271;42698;-73
2022/01/10 05:54:51;;;;;;;8.20;4.60;;;;;;;-5.77;78.93;96194.38;107556;1268;45495;-73
2022/01/10 05:57:22;;;;;;;10.90;5.30;;;;;;;-5.76;79.11;96202.41;107582;1268;43161;-73
2022/01/10 05:59:53;;;;;;;9.80;5.30;;;;;;;-5.75;79.42;96209.84;107664;1271;28364;-73
2022/01/10 06:02:24;;;;;;;7.60;4.60;;;;;;;-5.69;79.49;96212.15;107602;1268;42378;-73
2022/01/10 06:04:57;;;;;;;13.00;6.20;;;;;;;-5.62;79.83;96218.33;107597;1268;38804;-73
2022/01/10 06:07:28;;;;;;;12.60;5.90;;;;;;;-5.56;80.01;96218.85;107623;1268;31805;-73
2022/01/10 06:09:59;;;;;;;11.40;6.60;;;;;;;-5.51;80.37;96222.06;107638;1268;48124;-73
2022/01/10 06:12:30;;;;;;;12.70;6.20;;;;;;;-5.48;80.08;96229.57;107523;1268;47648;-73
2022/01/10 06:15:01;;;;;;;11.80;6.60;;;;;;;-5.58;79.43;96235.89;107510;1271;37735;-73
2022/01/10 06:17:32;;;;;;;12.50;6.80;;;;;;;-5.65;79.08;96239.81;107543;1268;42117;-72
2022/01/10 06:20:04;;;;;;;14.10;7.20;;;;;;;-5.62;79.10;96244.20;107571;1267;31212;-73
2022/01/10 06:22:35;;;;;;;17.00;6.70;;;;;;;-5.57;79.30;96250.63;107374;1271;42600;-73
2022/01/10 06:25:08;;;;;;;15.60;8.10;;;;;;;-5.50;79.57;96255.34;107539;1270;34359;-73
2022/01/10 06:27:39;;;;;;;14.90;8.10;;;;;;;-5.50;79.31;96265.30;107575;1271;33132;-73
2022/01/10 06:30:12;;;;;;;14.20;7.20;;;;;;;-5.58;79.01;96267.82;107503;1271;30350;-73
2022/01/10 06:32:43;;;;;;;11.40;6.30;;;;;;;-5.71;78.72;96275.97;107490;1271;54127;-73
2022/01/10 06:35:15;;;;;;;12.80;6.80;;;;;;;-5.76;79.03;96277.27;107542;1268;42568;-72
2022/01/10 06:37:45;;;;;;;13.80;6.50;;;;;;;-5.73;78.91;96282.27;107483;1268;44218;-73
2022/01/10 06:40:17;;;;;;;16.60;7.90;;;;;;;-5.74;78.75;96294.33;107528;1268;47961;-73
2022/01/10 06:42:48;;;;;;;15.80;8.10;;;;;;;-5.95;78.78;96297.40;107560;1268;31984;-73
2022/01/10 06:45:19;;;;;;;17.60;9.70;;;;;;;-6.11;78.88;96306.06;107583;1268;41219;-73
2022/01/10 06:47:50;;;;;;;18.10;9.30;;;;;;;-6.11;79.39;96316.07;107569;1268;41643;-73
2022/01/10 06:50:21;;;;;;;18.90;10.00;;;;;;;-6.04;79.03;96317.98;107504;1268;39056;-73
2022/01/10 06:52:54;;;;;;;18.90;9.50;;;;;;;-5.96;78.74;96325.48;107541;1268;45648;-73
2022/01/10 06:55:25;;;;;;;21.30;9.90;;;;;;;-6.02;78.78;96324.53;107516;1268;41558;-73
2022/01/10 06:57:56;;;;;;;26.90;13.50;;;;;;;-6.09;79.04;96329.99;107489;1271;37316;-73
2022/01/10 07:00:27;;;;;;;24.40;12.60;;;;;;;-6.14;79.11;96329.66;107495;1268;46704;-73
2022/01/10 07:02:58;;;;;;;20.30;11.20;;;;;;;-6.14;79.24;96337.56;107483;1268;49234;-73
2022/01/10 07:05:30;;;;;;;18.10;9.60;;;;;;;-6.11;79.75;96340.45;107452;1271;40864;-73
2022/01/10 07:08:00;;;;;;;26.40;12.60;;;;;;;-5.98;79.71;96349.23;107578;1268;32165;-73
2022/01/10 07:10:31;;;;;;;23.20;12.00;;;;;;;-5.70;80.07;96353.69;107487;1268;54756;-73
2022/01/10 07:13:03;;;;;;;19.70;11.50;;;;;;;-5.34;80.16;96356.33;107596;1268;31092;-73
2022/01/10 07:15:34;;;;;;;25.30;13.10;;;;;;;-4.95;80.22;96363.38;107538;1268;35337;-73
2022/01/10 07:18:05;;;;;;;25.00;12.50;;;;;;;-4.58;80.04;96368.30;107510;1270;35573;-73
2022/01/10 07:20:36;;;;;;;24.10;12.00;;;;;;;-4.26;79.56;96367.66;107621;1270;50082;-73
2022/01/10 07:23:06;;;;;;;20.70;11.30;;;;;;;-3.87;79.54;96373.38;107659;1270;47755;-72
2022/01/10 07:25:37;;;;;;;22.50;12.40;;;;;;;-3.44;79.15;96373.20;107652;1270;46585;-73
2022/01/10 07:28:08;;;;;;;19.00;11.50;;;;;;;-2.96;78.56;96376.52;107541;1268;183654;-73
2022/01/10 07:30:39;;;;;;;19.80;11.90;;;;;;;-2.58;77.65;96372.48;107743;1268;32984;-73
2022/01/10 07:33:10;;;;;;;22.10;13.00;;;;;;;-2.52;76.31;96373.88;107688;1271;31590;-73
2022/01/10 07:35:41;;;;;;;21.90;11.70;;;;;;;-2.56;75.62;96382.85;107569;1268;36577;-74
2022/01/10 07:38:12;;;;;;;20.30;11.00;;;;;;;-2.50;75.71;96389.11;107486;1269;39115;-74
2022/01/10 07:40:43;;;;;;;23.40;11.00;;;;;;;-2.21;75.88;96392.42;107498;1271;34783;-73
2022/01/10 07:43:14;;;;;;;22.30;12.70;;;;;;;-1.82;76.05;96394.60;107527;1268;47210;-73
2022/01/10 07:45:45;;;;;;;24.70;14.40;;;;;;;-1.45;75.82;96403.85;107560;1268;56222;-74
2022/01/10 07:48:17;;;;;;;25.00;14.50;;;;;;;-1.35;74.79;96407.80;107565;1268;40503;-73
2022/01/10 07:50:48;;;;;;;63.30;35.70;;;;;;;-1.48;74.05;96412.30;107580;1268;42790;-73
2022/01/10 07:53:19;;;;;;;37.40;21.90;;;;;;;-1.66;73.55;96416.05;107476;1268;37676;-73
2022/01/10 07:55:50;;;;;;;23.50;14.60;;;;;;;-1.82;73.30;96422.14;107495;1270;33892;-73
2022/01/10 07:58:21;;;;;;;22.50;13.50;;;;;;;-1.83;73.20;96433.05;107574;1268;41600;-73
2022/01/10 08:00:52;;;;;;;28.10;16.10;;;;;;;-1.90;73.12;96436.02;107586;1268;31067;-72
2022/01/10 08:03:23;;;;;;;30.30;17.90;;;;;;;-1.97;73.11;96440.96;107548;1268;45138;-73
2022/01/10 08:05:54;;;;;;;36.00;19.80;;;;;;;-2.23;72.73;96449.35;107552;1268;31800;-73
2022/01/10 08:08:25;;;;;;;41.30;23.20;;;;;;;-2.46;72.91;96456.52;107545;1268;33514;-73
2022/01/10 08:10:56;;;;;;;42.10;23.90;;;;;;;-2.61;73.08;96466.93;107508;1271;33069;-72
2022/01/10 08:13:26;;;;;;;48.90;27.80;;;;;;;-2.74;73.17;96469.95;107480;1270;47271;-73
2022/01/10 08:15:57;;;;;;;53.00;28.00;;;;;;;-3.07;72.82;96470.61;107437;1270;115181;-73
2022/01/10 08:18:30;;;;;;;52.90;31.00;;;;;;;-3.27;73.22;96472.34;107367;1270;97694;-73
2022/01/10 08:21:01;;;;;;;53.70;29.40;;;;;;;-3.39;73.64;96476.77;107453;1271;44009;-73
2022/01/10 08:23:32;;;;;;;60.20;31.40;;;;;;;-3.57;73.77;96485.61;107465;1270;40655;-73
2022/01/10 08:26:07;;;;;;;48.20;28.30;;;;;;;-3.57;74.15;96486.97;107451;1270;33946;-72
2022/01/10 08:28:39;;;;;;;50.00;27.20;;;;;;;-3.30;74.76;96494.98;107425;1271;41703;-72
2022/01/10 08:31:10;;;;;;;49.90;27.70;;;;;;;-3.00;74.79;96489.45;107539;1270;48072;-73
2022/01/10 08:33:45;;;;;;;48.00;27.50;;;;;;;-2.85;74.43;96492.76;107352;1271;95550;-74
2022/01/10 08:36:16;;;;;;;45.00;26.50;;;;;;;-2.81;74.13;96503.87;107298;1271;100939;-73
2022/01/10 08:38:47;;;;;;;51.80;29.80;;;;;;;-2.94;73.88;96506.14;107292;1271;122204;-73
2022/01/10 08:41:18;;;;;;;43.00;26.20;;;;;;;-3.03;73.97;96510.74;107373;1271;38903;-73
2022/01/10 08:43:49;;;;;;;55.00;30.60;;;;;;;-3.12;73.84;96513.23;107292;1270;98184;-73
2022/01/10 08:46:20;;;;;;;56.70;32.40;;;;;;;-3.31;73.80;96518.27;107291;1270;63163;-73
2022/01/10 08:48:52;;;;;;;58.80;33.30;;;;;;;-3.35;74.12;96525.63;107317;1271;59252;-73
2022/01/10 08:51:25;;;;;;;58.10;32.90;;;;;;;-3.29;74.32;96524.01;107311;1271;127255;-74
2022/01/10 08:53:56;;;;;;;59.60;31.70;;;;;;;-3.21;74.29;96521.78;107190;1271;113118;-73
2022/01/10 08:56:27;;;;;;;55.30;32.10;;;;;;;-3.12;74.28;96525.98;107228;1271;119088;-73
2022/01/10 08:58:58;;;;;;;54.70;31.40;;;;;;;-2.99;74.40;96523.57;107452;1270;45451;-73
2022/01/10 09:01:29;;;;;;;57.10;31.80;;;;;;;-2.82;74.50;96527.92;107301;1271;130780;-73
2022/01/10 09:04:00;;;;;;;57.70;30.40;;;;;;;-2.76;74.12;96528.73;107362;1270;81208;-73
2022/01/10 09:06:31;;;;;;;64.10;35.10;;;;;;;-3.02;73.73;96533.38;107166;1270;120826;-73
2022/01/10 09:09:03;;;;;;;66.00;38.80;;;;;;;-3.29;73.89;96534.23;107340;1271;104429;-72
2022/01/10 09:11:34;;;;;;;65.30;37.50;;;;;;;-3.49;74.23;96538.71;107423;1270;62654;-73
2022/01/10 09:14:05;;;;;;;71.30;40.10;;;;;;;-3.62;74.61;96544.30;107292;1270;109545;-73
2022/01/10 09:16:36;;;;;;;73.60;42.90;;;;;;;-3.72;74.91;96543.59;107491;1270;43233;-72
2022/01/10 09:19:07;;;;;;;73.20;41.50;;;;;;;-3.66;75.36;96551.77;107427;1270;74308;-73
2022/01/10 09:21:40;;;;;;;73.40;44.40;;;;;;;-3.63;75.53;96554.06;107479;1270;43888;-73
2022/01/10 09:24:11;;;;;;;68.60;40.10;;;;;;;-3.41;75.81;96553.22;107502;1268;52460;-74
2022/01/10 09:26:42;;;;;;;75.70;40.30;;;;;;;-3.31;75.42;96561.30;107582;1268;31443;-73
2022/01/10 09:29:13;;;;;;;75.10;43.30;;;;;;;-3.42;75.29;96563.02;107498;1268;64601;-73
2022/01/10 09:31:45;;;;;;;74.70;43.20;;;;;;;-3.52;75.27;96567.08;107438;1268;62236;-73
2022/01/10 09:34:16;;;;;;;69.10;37.90;;;;;;;-3.73;75.57;96577.06;107388;1268;97242;-73
2022/01/10 09:36:47;;;;;;;72.50;41.40;;;;;;;-3.68;75.84;96580.31;107481;1268;41106;-73
2022/01/10 09:39:19;;;;;;;79.50;44.60;;;;;;;-3.65;75.95;96580.39;107524;1268;46391;-73
2022/01/10 09:41:52;;;;;;;75.80;41.80;;;;;;;-3.74;75.82;96582.91;107572;1268;35915;-73
2022/01/10 09:44:22;;;;;;;75.20;43.30;;;;;;;-3.74;76.21;96582.16;107458;1270;110769;-73
2022/01/10 09:46:53;;;;;;;80.60;45.40;;;;;;;-3.87;76.13;96582.71;107536;1268;56563;-73
2022/01/10 09:49:25;;;;;;;76.20;45.40;;;;;;;-3.82;76.44;96585.81;107588;1268;43685;-73
2022/01/10 09:51:56;;;;;;;70.80;41.80;;;;;;;-3.56;76.39;96586.30;107482;1268;40712;-73
2022/01/10 09:54:26;;;;;;;68.80;41.20;;;;;;;-3.57;76.04;96590.84;107490;1271;42283;-73
2022/01/10 09:56:58;;;;;;;67.90;39.30;;;;;;;-3.42;76.31;96589.58;107407;1270;85484;-73
2022/01/10 09:59:29;;;;;;;69.10;40.00;;;;;;;-3.25;76.13;96585.01;107581;1268;38656;-73
2022/01/10 10:02:00;;;;;;;65.30;39.70;;;;;;;-3.05;75.98;96588.93;107577;1268;35149;-72
2022/01/10 10:04:34;;;;;;;70.90;41.30;;;;;;;-2.83;76.06;96587.78;107538;1268;40656;-73
2022/01/10 10:07:07;;;;;;;65.70;41.30;;;;;;;-2.48;76.20;96591.67;107583;1268;38873;-73
2022/01/10 10:09:39;;;;;;;67.30;40.50;;;;;;;-2.52;75.05;96594.19;107613;1268;31040;-72
2022/01/10 10:12:11;;;;;;;67.30;41.00;;;;;;;-2.61;74.77;96603.06;107604;1270;41176;-73
2022/01/10 10:14:45;;;;;;;70.80;41.80;;;;;;;-2.76;74.61;96603.09;107517;1268;40231;-73
2022/01/10 10:17:20;;;;;;;72.00;40.60;;;;;;;-2.78;75.06;96599.89;107402;1270;50216;-72
2022/01/10 10:19:53;;;;;;;73.90;42.80;;;;;;;-2.52;75.33;96607.68;107552;1268;45954;-72
2022/01/10 10:22:25;;;;;;;65.20;41.30;;;;;;;-2.31;75.23;96606.52;107531;1268;42712;-73
2022/01/10 10:24:56;;;;;;;76.40;45.00;;;;;;;-2.24;74.74;96608.75;107502;1268;43801;-73
2022/01/10 10:27:27;;;;;;;73.70;42.60;;;;;;;-2.36;74.48;96615.27;107505;1268;38521;-72
2022/01/10 10:29:59;;;;;;;74.30;42.80;;;;;;;-2.36;74.43;96618.23;107560;1270;33319;-72
2022/01/10 10:32:32;;;;;;;76.70;44.40;;;;;;;-2.39;74.30;96623.28;107567;1268;34254;-72
2022/01/10 10:35:07;;;;;;;75.60;43.50;;;;;;;-2.34;74.59;96628.57;107592;1268;32797;-72
2022/01/10 10:37:41;;;;;;;72.30;40.80;;;;;;;-2.18;74.36;96631.92;107610;1268;38590;-72
2022/01/10 10:40:14;;;;;;;83.00;45.90;;;;;;;-1.95;74.44;96633.88;107598;1268;39591;-73
2022/01/10 10:42:46;;;;;;;75.40;41.20;;;;;;;-1.71;74.29;96628.48;107557;1268;36294;-73
2022/01/10 10:45:17;;;;;;;67.90;41.40;;;;;;;-1.96;73.15;96630.83;107565;1268;39694;-72
2022/01/10 10:47:48;;;;;;;75.30;42.00;;;;;;;-2.15;73.64;96633.20;107550;1268;39579;-72
2022/01/10 10:50:21;;;;;;;73.80;41.40;;;;;;;-2.23;73.74;96637.08;107602;1268;34617;-73
2022/01/10 10:52:52;;;;;;;68.40;38.50;;;;;;;-2.12;74.03;96636.57;107486;1270;41356;-72
2022/01/10 10:55:25;;;;;;;68.10;40.10;;;;;;;-2.10;73.83;96639.33;107648;1268;36639;-72
2022/01/10 10:57:57;;;;;;;59.70;36.90;;;;;;;-2.21;73.98;96638.15;107605;1271;29979;-72
2022/01/10 11:00:28;;;;;;;58.40;33.60;;;;;;;-2.24;73.86;96636.94;107553;1271;31873;-72
2022/01/10 11:02:59;;;;;;;57.40;33.00;;;;;;;-2.20;74.21;96638.71;107543;1271;38569;-72
2022/01/10 11:05:31;;;;;;;51.50;31.50;;;;;;;-2.21;73.85;96641.39;107568;1268;33936;-72
2022/01/10 11:08:02;;;;;;;60.70;32.00;;;;;;;-2.23;73.98;96641.50;107587;1268;29794;-72
2022/01/10 11:10:34;;;;;;;53.50;30.90;;;;;;;-2.23;73.90;96645.09;107587;1268;29101;-73
2022/01/10 11:13:07;;;;;;;53.30;31.90;;;;;;;-2.36;73.71;96647.61;107542;1268;41778;-72
2022/01/10 11:15:39;;;;;;;56.00;32.80;;;;;;;-2.41;74.01;96651.66;107654;1270;41419;-73
2022/01/10 11:18:11;;;;;;;59.10;31.70;;;;;;;-2.34;74.43;96657.64;107667;1268;39428;-73
2022/01/10 11:20:46;;;;;;;52.70;30.30;;;;;;;-2.27;74.38;96658.29;107550;1268;37429;-73
2022/01/10 11:23:17;;;;;;;52.60;31.50;;;;;;;-2.32;74.31;96661.80;107577;1271;29038;-73
2022/01/10 11:25:48;;;;;;;55.10;32.00;;;;;;;-2.34;74.54;96666.27;107539;1268;37472;-73
2022/01/10 11:28:24;;;;;;;61.00;31.60;;;;;;;-2.27;74.70;96667.45;107617;1268;37999;-73
2022/01/10 11:30:59;;;;;;;75.40;41.00;;;;;;;-2.37;74.49;96674.45;107585;1268;41637;-73
2022/01/10 11:33:32;;;;;;;68.70;37.70;;;;;;;-2.78;74.89;96677.48;107616;1268;36531;-72
2022/01/10 11:36:07;;;;;;;76.30;41.30;;;;;;;-3.10;75.69;96676.55;107622;1268;44032;-73
2022/01/10 11:38:41;;;;;;;71.70;39.60;;;;;;;-3.27;76.15;96674.88;107630;1268;47053;-72
2022/01/10 11:41:14;;;;;;;70.00;38.60;;;;;;;-3.31;76.53;96678.77;107562;1268;43438;-73
2022/01/10 11:43:49;;;;;;;64.90;38.30;;;;;;;-3.29;76.80;96675.02;107558;1268;54631;-73
2022/01/10 11:46:26;;;;;;;65.50;39.40;;;;;;;-3.27;76.99;96683.61;107579;1270;40325;-73